Terminal Aerodrome Forecast
Issued by NWS

Home | Current Version | Previous Version | Text Only | Print | Product List | Glossary On
Versions: 1 2 3 4 5 6 7 8 9 10 11 12 13 14 15
000
FTUS42 TJSJ 291725
TAFJSJ
TAF
TJSJ 291725Z 2918/3018 11010KT P6SM VCTS SCT022CB SCT050 BKN100
      TEMPO 2918/2920 VRB12G20KT 5SM TSRA SCT025CB BKN040 BKN070
     FM292200 12010KT P6SM VCTS SCT025CB BKN050 BKN070
     FM301330 09008KT P6SM VCSH SCT025 BKN100=

USA.gov is the U.S. government's official web portal to all federal, state and local government web resources and services.